createdAt,value
2019-03-04T00:00:16.222Z,94.00
2019-03-04T00:01:45.838Z,94.20
2019-03-04T00:03:11.577Z,94.30
2019-03-04T00:04:37.154Z,94.30
2019-03-04T00:06:02.764Z,94.40
2019-03-04T00:07:28.332Z,94.60
2019-03-04T00:08:53.878Z,94.50
2019-03-04T00:10:19.440Z,94.50
2019-03-04T00:11:45.065Z,94.80
2019-03-04T00:13:10.584Z,94.70
2019-03-04T00:14:36.122Z,94.80
2019-03-04T00:16:01.883Z,94.90
2019-03-04T00:17:27.464Z,95.00
2019-03-04T00:18:53.021Z,94.80
2019-03-04T00:20:18.669Z,94.90
2019-03-04T00:21:44.298Z,95.00
2019-03-04T00:23:09.768Z,95.40
2019-03-04T00:24:35.289Z,95.50
2019-03-04T00:26:00.839Z,95.20
2019-03-04T00:27:26.366Z,95.20
2019-03-04T00:28:51.892Z,95.20
2019-03-04T00:30:17.645Z,95.30
2019-03-04T00:31:43.178Z,95.50
2019-03-04T00:33:08.798Z,95.80
2019-03-04T00:34:34.344Z,95.70
2019-03-04T00:35:59.891Z,95.80
2019-03-04T00:37:25.549Z,95.90
2019-03-04T00:38:51.198Z,95.90
2019-03-04T00:40:17.818Z,95.90
2019-03-04T00:41:43.345Z,96.50
2019-03-04T00:43:08.877Z,96.90
2019-03-04T00:44:34.421Z,96.90
2019-03-04T00:45:59.975Z,96.80
2019-03-04T00:47:25.501Z,96.70
2019-03-04T00:48:51.029Z,96.80
2019-03-04T00:50:16.542Z,96.70
2019-03-04T00:51:42.206Z,96.60
2019-03-04T00:53:07.746Z,96.60
2019-03-04T00:54:33.249Z,96.60
2019-03-04T00:55:58.930Z,96.40
2019-03-04T00:57:24.486Z,96.40
2019-03-04T00:58:50.001Z,96.30
2019-03-04T01:00:18.909Z,96.10
2019-03-04T01:01:44.658Z,95.90
2019-03-04T01:03:10.293Z,95.80
2019-03-04T01:04:35.826Z,95.80
2019-03-04T01:06:03.362Z,95.90
2019-03-04T01:07:28.741Z,96.00
2019-03-04T01:08:54.429Z,96.20
2019-03-04T01:10:20.292Z,96.20
2019-03-04T01:11:45.958Z,96.40
2019-03-04T01:13:11.706Z,96.60
2019-03-04T01:14:37.329Z,96.70
2019-03-04T01:16:02.958Z,96.70
2019-03-04T01:17:28.761Z,96.60
2019-03-04T01:18:54.339Z,96.70
2019-03-04T01:20:20.170Z,96.90
2019-03-04T01:21:45.810Z,96.90
2019-03-04T01:23:11.428Z,96.70
2019-03-04T01:24:36.978Z,96.60
2019-03-04T01:26:02.522Z,96.60
2019-03-04T01:27:28.134Z,96.80
2019-03-04T01:28:53.668Z,96.80
2019-03-04T01:30:21.070Z,96.60
2019-03-04T01:31:46.650Z,96.60
2019-03-04T01:33:12.246Z,96.70
2019-03-04T01:34:37.785Z,96.60
2019-03-04T01:36:03.428Z,96.40
2019-03-04T01:37:29.067Z,96.20
2019-03-04T01:38:54.627Z,96.00
2019-03-04T01:40:21.631Z,95.90
2019-03-04T01:41:47.129Z,95.90
2019-03-04T01:43:12.793Z,95.80
2019-03-04T01:44:38.430Z,95.90
2019-03-04T01:46:04.111Z,96.00
2019-03-04T01:47:29.788Z,95.90
2019-03-04T01:48:55.463Z,96.00
2019-03-04T01:50:25.743Z,96.10
2019-03-04T01:51:51.660Z,96.10
2019-03-04T01:53:17.312Z,96.00
2019-03-04T01:54:45.223Z,96.00
2019-03-04T01:56:10.768Z,96.00
2019-03-04T01:57:36.319Z,95.80
2019-03-04T01:59:04.860Z,95.60
2019-03-04T02:00:30.600Z,95.50
2019-03-04T02:01:56.137Z,95.50
2019-03-04T02:03:21.681Z,95.60
2019-03-04T02:04:47.196Z,95.50
2019-03-04T02:06:12.817Z,95.40
2019-03-04T02:07:38.490Z,95.50
2019-03-04T02:09:05.533Z,95.70
2019-03-04T02:10:31.065Z,95.60
2019-03-04T02:11:56.613Z,95.70
2019-03-04T02:13:22.286Z,95.40
2019-03-04T02:14:47.817Z,95.50
2019-03-04T02:16:13.371Z,95.30
2019-03-04T02:17:39.089Z,95.20
2019-03-04T02:19:04.709Z,95.00
2019-03-04T02:20:30.476Z,95.00
2019-03-04T02:21:55.976Z,95.00
2019-03-04T02:23:21.496Z,94.80
2019-03-04T02:24:47.058Z,94.90
2019-03-04T02:26:24.831Z,94.70
2019-03-04T02:27:53.024Z,94.50
2019-03-04T02:29:18.669Z,94.50
2019-03-04T02:30:44.290Z,94.20
2019-03-04T02:32:09.831Z,94.20
2019-03-04T02:33:35.615Z,94.40
2019-03-04T02:35:01.203Z,94.30
2019-03-04T02:36:26.775Z,94.10
2019-03-04T02:37:52.462Z,93.90
2019-03-04T02:39:18.118Z,94.00
2019-03-04T02:40:43.806Z,93.90
2019-03-04T02:42:09.323Z,93.90
2019-03-04T02:43:35.019Z,94.10
2019-03-04T02:45:00.566Z,94.10
2019-03-04T02:46:26.307Z,94.10
2019-03-04T02:47:51.853Z,94.10
2019-03-04T02:49:17.539Z,94.10
2019-03-04T02:50:43.043Z,94.00
2019-03-04T02:52:08.703Z,94.10
2019-03-04T02:53:34.204Z,94.10
2019-03-04T02:54:59.709Z,94.10
2019-03-04T02:56:25.853Z,94.10
2019-03-04T02:57:51.378Z,94.20
2019-03-04T02:59:16.917Z,94.10
2019-03-04T03:00:42.683Z,93.90
2019-03-04T03:02:08.655Z,94.00
2019-03-04T03:03:34.200Z,94.00
2019-03-04T03:04:59.823Z,94.10
2019-03-04T03:06:25.426Z,94.10
2019-03-04T03:07:50.928Z,94.20
2019-03-04T03:09:16.523Z,94.30
2019-03-04T03:10:42.257Z,94.10
2019-03-04T03:12:07.917Z,94.20
2019-03-04T03:13:36.537Z,94.20
2019-03-04T03:15:02.271Z,94.20
2019-03-04T03:16:27.805Z,94.10
2019-03-04T03:17:53.487Z,94.10
2019-03-04T03:19:19.044Z,94.10
2019-03-04T03:20:44.577Z,94.00
2019-03-04T03:22:10.106Z,93.90
2019-03-04T03:23:37.322Z,93.90
2019-03-04T03:25:03.108Z,93.90
2019-03-04T03:26:28.638Z,93.90
2019-03-04T03:27:54.220Z,93.90
2019-03-04T03:29:19.755Z,93.80
2019-03-04T03:30:45.235Z,94.00
2019-03-04T03:32:10.765Z,94.00
2019-03-04T03:33:38.811Z,94.10
2019-03-04T03:35:08.570Z,94.20
2019-03-04T03:36:34.566Z,94.20
2019-03-04T03:38:00.106Z,94.30
2019-03-04T03:39:25.661Z,94.40
2019-03-04T03:40:51.368Z,94.40
2019-03-04T03:42:19.053Z,94.50
2019-03-04T03:43:44.129Z,94.50
2019-03-04T03:45:10.126Z,94.60
2019-03-04T03:46:37.356Z,94.50
2019-03-04T03:48:02.895Z,94.50
2019-03-04T03:49:28.454Z,94.70
2019-03-04T03:50:54.056Z,94.90
2019-03-04T03:52:19.601Z,95.00
2019-03-04T03:53:45.137Z,95.00
2019-03-04T03:55:11.624Z,95.00
2019-03-04T03:56:37.487Z,94.80
2019-03-04T03:58:03.033Z,94.70
2019-03-04T03:59:28.653Z,94.50
2019-03-04T04:00:54.339Z,94.30
2019-03-04T04:02:20.038Z,94.20
2019-03-04T04:03:45.597Z,94.20
2019-03-04T04:05:11.270Z,94.20
2019-03-04T04:06:36.832Z,94.20
2019-03-04T04:08:02.364Z,94.20
2019-03-04T04:09:27.834Z,94.10
2019-03-04T04:10:53.533Z,94.20
2019-03-04T04:12:19.149Z,94.30
2019-03-04T04:13:44.667Z,94.40
2019-03-04T04:15:10.920Z,94.30
2019-03-04T04:16:36.566Z,94.20
2019-03-04T04:18:02.098Z,94.20
2019-03-04T04:19:27.825Z,94.20
2019-03-04T04:20:53.588Z,93.90
2019-03-04T04:22:19.479Z,93.90
2019-03-04T04:23:47.237Z,94.00
2019-03-04T04:25:12.970Z,94.00
2019-03-04T04:26:38.510Z,94.00
2019-03-04T04:28:06.674Z,93.90
2019-03-04T04:29:35.266Z,93.90
2019-03-04T04:31:00.837Z,94.30
2019-03-04T04:32:26.378Z,94.10
2019-03-04T04:33:51.961Z,94.20
2019-03-04T04:35:17.631Z,94.10
2019-03-04T04:36:43.294Z,94.10
2019-03-04T04:38:08.801Z,94.00
2019-03-04T04:39:34.304Z,94.00
2019-03-04T04:40:59.878Z,94.00
2019-03-04T04:42:25.526Z,94.00
2019-03-04T04:43:51.013Z,94.10
2019-03-04T04:45:16.732Z,94.20
2019-03-04T04:46:55.567Z,94.10
2019-03-04T04:48:21.514Z,94.00
2019-03-04T04:49:47.037Z,93.90
2019-03-04T04:51:12.614Z,93.80
2019-03-04T04:52:38.234Z,93.60
2019-03-04T04:54:03.774Z,93.60
2019-03-04T04:55:48.374Z,93.80
2019-03-04T04:57:13.985Z,93.70
2019-03-04T04:58:42.795Z,93.80
2019-03-04T05:00:11.459Z,93.80
2019-03-04T05:01:36.980Z,93.60
2019-03-04T05:03:02.642Z,93.50
2019-03-04T05:04:28.262Z,93.40
2019-03-04T05:05:53.914Z,93.10
2019-03-04T05:07:19.614Z,93.20
2019-03-04T05:08:45.116Z,93.10
2019-03-04T05:10:13.753Z,93.10
2019-03-04T05:11:39.431Z,93.10
2019-03-04T05:13:04.917Z,93.20
2019-03-04T05:14:30.558Z,93.10
2019-03-04T05:15:56.122Z,92.90
2019-03-04T05:17:24.294Z,92.80
2019-03-04T05:18:52.654Z,92.60
2019-03-04T05:20:20.334Z,92.70
2019-03-04T05:21:45.998Z,92.90
2019-03-04T05:23:11.666Z,92.80
2019-03-04T05:24:37.326Z,92.60
2019-03-04T05:26:02.986Z,92.60
2019-03-04T05:27:28.562Z,92.40
2019-03-04T05:28:54.123Z,92.40
2019-03-04T05:30:20.378Z,92.60
2019-03-04T05:31:45.899Z,92.50
2019-03-04T05:33:11.560Z,92.40
2019-03-04T05:34:37.222Z,92.50
2019-03-04T05:36:02.847Z,92.60
2019-03-04T05:37:28.444Z,92.40
2019-03-04T05:38:53.998Z,92.40
2019-03-04T05:40:19.677Z,92.10
2019-03-04T05:41:45.184Z,92.00
2019-03-04T05:43:10.734Z,91.60
2019-03-04T05:44:36.249Z,91.80
2019-03-04T05:46:01.802Z,91.50
2019-03-04T05:47:27.367Z,91.30
2019-03-04T05:48:52.906Z,91.10
2019-03-04T05:50:18.702Z,90.90
2019-03-04T05:51:44.221Z,90.70
2019-03-04T05:53:09.766Z,90.70
2019-03-04T05:54:35.268Z,90.90
2019-03-04T05:56:00.783Z,90.80
2019-03-04T05:57:26.289Z,90.80
2019-03-04T05:58:51.901Z,90.80
2019-03-04T06:00:19.425Z,90.70
2019-03-04T06:01:52.435Z,90.60
2019-03-04T06:03:18.182Z,90.50
2019-03-04T06:04:45.705Z,90.60
2019-03-04T06:06:11.450Z,90.50
2019-03-04T06:07:43.078Z,90.10
2019-03-04T06:09:10.758Z,89.40
2019-03-04T06:10:36.257Z,90.00
2019-03-04T06:12:01.917Z,89.40
2019-03-04T06:13:27.538Z,90.00
2019-03-04T06:14:53.070Z,89.80
2019-03-04T06:16:18.672Z,89.20
2019-03-04T06:17:44.318Z,89.80
2019-03-04T06:19:09.917Z,88.40
2019-03-04T06:20:35.507Z,88.10
2019-03-04T06:22:01.062Z,89.00
2019-03-04T06:23:26.631Z,86.40
2019-03-04T06:24:52.181Z,88.20
2019-03-04T06:26:17.736Z,88.40
2019-03-04T06:27:43.421Z,88.20
2019-03-04T06:29:08.969Z,87.60
2019-03-04T06:30:34.718Z,86.40
2019-03-04T06:32:00.315Z,86.60
2019-03-04T06:33:25.979Z,85.30
2019-03-04T06:34:51.615Z,85.10
2019-03-04T06:36:17.104Z,83.90
2019-03-04T06:37:42.873Z,83.90
2019-03-04T06:39:09.373Z,83.00
2019-03-04T06:40:34.898Z,82.70
2019-03-04T06:42:00.438Z,84.40
2019-03-04T06:43:25.873Z,84.10
2019-03-04T06:44:54.191Z,84.70
2019-03-04T06:46:19.751Z,84.70
2019-03-04T06:47:45.494Z,84.80
2019-03-04T06:49:11.012Z,84.90
2019-03-04T06:50:52.978Z,84.70
2019-03-04T06:52:18.810Z,83.90
2019-03-04T06:54:07.973Z,83.00
2019-03-04T06:55:58.823Z,83.30
2019-03-04T06:57:28.680Z,83.20
2019-03-04T06:58:58.915Z,83.70
2019-03-04T07:00:53.631Z,84.20
2019-03-04T07:02:19.637Z,84.10
2019-03-04T07:04:00.362Z,83.40
2019-03-04T07:05:53.049Z,82.70
2019-03-04T07:07:20.217Z,83.20
2019-03-04T07:09:12.615Z,83.40
2019-03-04T07:10:38.104Z,83.20
2019-03-04T07:12:03.641Z,82.00
2019-03-04T07:13:29.214Z,82.00
2019-03-04T07:14:54.742Z,81.70
2019-03-04T07:16:21.714Z,81.20
2019-03-04T07:17:47.250Z,81.60
2019-03-04T07:19:14.767Z,81.70
2019-03-04T07:20:40.324Z,79.80
2019-03-04T07:22:06.081Z,81.40
2019-03-04T07:23:31.713Z,81.50
2019-03-04T07:24:57.231Z,81.60
2019-03-04T07:26:22.776Z,81.30
2019-03-04T07:27:48.385Z,80.70
2019-03-04T07:29:15.114Z,81.40
2019-03-04T07:30:40.726Z,81.60
2019-03-04T07:32:06.497Z,81.60
2019-03-04T07:33:32.050Z,81.00
2019-03-04T07:34:57.534Z,81.30
2019-03-04T07:36:23.162Z,80.80
2019-03-04T07:37:50.702Z,81.10
2019-03-04T07:39:17.202Z,81.40
2019-03-04T07:40:42.750Z,81.00
2019-03-04T07:42:08.268Z,80.80
2019-03-04T07:43:33.809Z,80.60
2019-03-04T07:44:59.276Z,80.90
2019-03-04T07:46:24.840Z,80.40
2019-03-04T07:47:50.494Z,80.40
2019-03-04T07:49:16.094Z,80.50
2019-03-04T07:50:41.902Z,79.60
2019-03-04T07:52:07.543Z,80.10
2019-03-04T07:53:33.266Z,80.50
2019-03-04T07:54:58.749Z,79.60
2019-03-04T07:56:24.374Z,79.90
2019-03-04T07:57:49.989Z,78.90
2019-03-04T07:59:15.479Z,78.20
2019-03-04T08:00:41.045Z,78.60
2019-03-04T08:02:06.714Z,78.60
2019-03-04T08:03:32.264Z,78.60
2019-03-04T08:04:57.794Z,77.20
2019-03-04T08:06:23.515Z,77.40
2019-03-04T08:07:51.338Z,75.80
2019-03-04T08:10:27.466Z,75.40
2019-03-04T08:12:47.686Z,74.70
2019-03-04T08:14:13.239Z,74.70
2019-03-04T08:15:47.243Z,74.20
2019-03-04T08:17:12.875Z,73.50
2019-03-04T08:18:38.527Z,73.10
2019-03-04T08:20:04.199Z,72.10
2019-03-04T08:21:29.915Z,71.40
2019-03-04T08:22:55.436Z,71.80
2019-03-04T08:24:21.087Z,69.50
2019-03-04T08:25:46.818Z,68.60
2019-03-04T08:27:12.338Z,68.70
2019-03-04T08:28:38.082Z,68.50
2019-03-04T08:30:03.661Z,67.30
2019-03-04T08:31:29.420Z,67.20
2019-03-04T08:32:54.946Z,67.00
2019-03-04T08:34:30.832Z,66.60
2019-03-04T08:35:50.768Z,66.50
2019-03-04T08:37:16.411Z,65.50
2019-03-04T08:38:41.947Z,63.90
2019-03-04T08:40:08.115Z,64.10
2019-03-04T08:41:33.745Z,64.50
2019-03-04T08:42:59.374Z,64.90
2019-03-04T08:44:24.900Z,64.60
2019-03-04T08:45:50.751Z,64.10
2019-03-04T08:47:16.372Z,62.20
2019-03-04T08:48:41.988Z,63.30
2019-03-04T08:50:08.412Z,62.80
2019-03-04T08:51:33.906Z,62.10
2019-03-04T08:52:59.737Z,62.00
2019-03-04T08:54:25.244Z,62.30
2019-03-04T08:55:50.886Z,62.60
2019-03-04T08:57:16.377Z,62.00
2019-03-04T08:58:41.867Z,61.40
2019-03-04T09:00:10.066Z,61.90
2019-03-04T09:01:35.783Z,61.70
2019-03-04T09:03:01.414Z,62.80
2019-03-04T09:04:27.140Z,62.40
2019-03-04T09:05:54.078Z,61.00
2019-03-04T09:07:19.715Z,60.50
2019-03-04T09:08:45.223Z,60.30
2019-03-04T09:10:17.167Z,60.70
2019-03-04T09:11:42.766Z,61.20
2019-03-04T09:13:08.360Z,59.80
2019-03-04T09:14:33.837Z,58.50
2019-03-04T09:15:59.446Z,57.80
2019-03-04T09:17:25.005Z,60.20
2019-03-04T09:18:50.577Z,60.50
2019-03-04T09:20:16.427Z,59.20
2019-03-04T09:21:41.947Z,59.00
2019-03-04T09:23:08.548Z,63.10
2019-03-04T09:24:34.030Z,61.30
2019-03-04T09:26:03.449Z,61.60
2019-03-04T09:27:28.990Z,62.50
2019-03-04T09:28:54.508Z,62.70
2019-03-04T09:30:20.277Z,65.50
2019-03-04T09:31:45.819Z,66.40
2019-03-04T09:33:11.350Z,67.20
2019-03-04T09:34:36.869Z,68.50
2019-03-04T09:36:02.414Z,71.60
2019-03-04T09:37:27.922Z,72.80
2019-03-04T09:38:53.375Z,74.40
2019-03-04T09:40:20.173Z,77.40
2019-03-04T09:41:45.762Z,78.60
2019-03-04T09:43:11.405Z,78.40
2019-03-04T09:44:37.004Z,79.10
2019-03-04T09:46:02.783Z,78.90
2019-03-04T09:47:28.277Z,79.10
2019-03-04T09:48:53.844Z,79.10
2019-03-04T09:50:20.131Z,80.20
2019-03-04T09:51:45.658Z,81.60
2019-03-04T09:53:11.256Z,83.60
2019-03-04T09:54:36.847Z,83.70
2019-03-04T09:56:02.388Z,84.30
2019-03-04T09:57:27.941Z,85.10
2019-03-04T09:58:53.481Z,85.50
2019-03-04T10:00:43.067Z,85.20
2019-03-04T10:02:12.949Z,85.10
2019-03-04T10:04:05.198Z,86.10
2019-03-04T10:05:54.652Z,85.10
2019-03-04T10:07:44.493Z,84.80
2019-03-04T10:09:42.360Z,84.90
2019-03-04T10:11:34.897Z,84.40
2019-03-04T10:13:42.950Z,85.00
2019-03-04T10:15:52.309Z,85.40
2019-03-04T10:18:05.007Z,85.80
2019-03-04T10:20:14.370Z,85.50
2019-03-04T10:22:00.987Z,85.70
2019-03-04T10:23:47.961Z,85.80
2019-03-04T10:25:46.970Z,85.40
2019-03-04T10:27:41.133Z,85.40
2019-03-04T10:29:42.850Z,85.80
2019-03-04T10:31:36.184Z,86.00
2019-03-04T10:33:45.349Z,86.10
2019-03-04T10:35:45.058Z,86.20
2019-03-04T10:37:38.342Z,86.90
2019-03-04T10:39:45.572Z,88.10
2019-03-04T10:41:56.939Z,87.70
2019-03-04T10:43:59.644Z,88.50
2019-03-04T10:45:59.781Z,89.40
2019-03-04T10:47:25.478Z,89.60
2019-03-04T10:48:50.985Z,90.00
2019-03-04T10:50:16.718Z,90.10
2019-03-04T10:51:42.268Z,90.30
2019-03-04T10:53:07.851Z,90.20
2019-03-04T10:54:33.354Z,90.40
2019-03-04T10:55:58.842Z,90.60
2019-03-04T10:57:24.593Z,90.70
2019-03-04T10:58:50.095Z,90.80
2019-03-04T11:00:19.531Z,90.80
2019-03-04T11:01:45.366Z,90.90
2019-03-04T11:03:10.912Z,90.80
2019-03-04T11:04:36.449Z,90.90
2019-03-04T11:06:01.908Z,90.90
2019-03-04T11:07:27.467Z,91.70
2019-03-04T11:08:52.975Z,91.50
2019-03-04T11:10:18.773Z,91.50
2019-03-04T11:11:44.414Z,91.50
2019-03-04T11:13:10.196Z,91.60
2019-03-04T11:14:35.706Z,91.80
2019-03-04T11:16:01.222Z,92.00
2019-03-04T11:17:26.758Z,91.90
2019-03-04T11:18:52.274Z,92.10
2019-03-04T11:20:18.006Z,92.30
2019-03-04T11:21:43.653Z,92.40
2019-03-04T11:23:09.388Z,92.40
2019-03-04T11:24:35.283Z,92.70
2019-03-04T11:26:00.945Z,92.70
2019-03-04T11:27:26.429Z,92.70
2019-03-04T11:28:52.054Z,92.90
2019-03-04T11:30:18.529Z,93.10
2019-03-04T11:31:44.246Z,93.40
2019-03-04T11:33:09.803Z,93.60
2019-03-04T11:34:35.342Z,93.70
2019-03-04T11:36:00.969Z,93.60
2019-03-04T11:37:26.498Z,93.90
2019-03-04T11:38:58.609Z,93.90
2019-03-04T11:40:30.487Z,93.90
2019-03-04T11:41:55.994Z,93.90
2019-03-04T11:43:21.507Z,94.00
2019-03-04T11:44:47.087Z,94.20
2019-03-04T11:46:12.708Z,94.70
2019-03-04T11:47:38.379Z,94.70
2019-03-04T11:49:03.907Z,94.50
2019-03-04T11:50:29.434Z,94.50
2019-03-04T11:51:54.926Z,95.00
2019-03-04T11:53:20.582Z,94.90
2019-03-04T11:54:46.261Z,95.10
2019-03-04T11:56:11.959Z,94.90
2019-03-04T11:57:37.603Z,95.10
2019-03-04T11:59:03.290Z,95.10
2019-03-04T12:00:36.270Z,95.50
2019-03-04T12:02:01.780Z,95.60
2019-03-04T12:03:27.259Z,95.40
2019-03-04T12:04:53.035Z,95.20
2019-03-04T12:06:18.718Z,95.00
2019-03-04T12:07:44.280Z,94.80
2019-03-04T12:09:15.353Z,95.10
2019-03-04T12:10:40.973Z,95.10
2019-03-04T12:12:06.700Z,94.70
2019-03-04T12:13:32.343Z,94.50
2019-03-04T12:14:58.351Z,94.10
2019-03-04T12:16:24.155Z,94.40
2019-03-04T12:17:49.905Z,94.50
2019-03-04T12:19:15.512Z,94.20
2019-03-04T12:20:41.137Z,94.20
2019-03-04T12:22:06.869Z,94.00
2019-03-04T12:23:33.273Z,93.70
2019-03-04T12:24:59.006Z,93.50
2019-03-04T12:26:24.721Z,93.60
2019-03-04T12:27:50.349Z,93.40
2019-03-04T12:29:15.847Z,93.60
2019-03-04T12:30:41.352Z,93.60
2019-03-04T12:32:21.876Z,93.60
2019-03-04T12:33:47.363Z,92.90
2019-03-04T12:35:14.391Z,92.40
2019-03-04T12:36:43.022Z,92.10
2019-03-04T12:38:08.804Z,91.60
2019-03-04T12:39:34.317Z,92.20
2019-03-04T12:40:59.798Z,92.40
2019-03-04T12:42:25.322Z,92.40
2019-03-04T12:43:50.799Z,92.10
2019-03-04T12:45:16.758Z,91.90
2019-03-04T12:46:42.294Z,91.90
2019-03-04T12:48:08.146Z,91.90
2019-03-04T12:49:33.674Z,91.90
2019-03-04T12:50:59.213Z,92.10
2019-03-04T12:52:24.843Z,91.90
2019-03-04T12:53:50.309Z,91.80
2019-03-04T12:55:15.978Z,91.30
2019-03-04T12:56:41.491Z,91.10
2019-03-04T12:58:07.093Z,90.80
2019-03-04T12:59:32.585Z,90.60
2019-03-04T13:00:58.129Z,90.40
2019-03-04T13:02:23.781Z,90.00
2019-03-04T13:03:49.317Z,90.00
2019-03-04T13:05:15.381Z,89.80
2019-03-04T13:06:41.030Z,89.70
2019-03-04T13:08:06.562Z,89.90
2019-03-04T13:09:32.050Z,89.90
2019-03-04T13:10:57.705Z,90.10
2019-03-04T13:12:23.230Z,90.10
2019-03-04T13:13:48.717Z,90.00
2019-03-04T13:15:19.424Z,89.90
2019-03-04T13:16:44.962Z,89.70
2019-03-04T13:18:10.614Z,89.40
2019-03-04T13:19:36.217Z,89.20
2019-03-04T13:21:01.872Z,88.60
2019-03-04T13:22:27.495Z,88.10
2019-03-04T13:23:52.999Z,88.20
2019-03-04T13:25:18.742Z,87.80
2019-03-04T13:26:44.330Z,87.70
2019-03-04T13:28:10.022Z,88.00
2019-03-04T13:29:35.581Z,87.80
2019-03-04T13:31:01.315Z,87.50
2019-03-04T13:32:26.849Z,87.20
2019-03-04T13:33:52.451Z,87.20
2019-03-04T13:35:24.526Z,87.50
2019-03-04T13:36:47.149Z,87.20
2019-03-04T13:38:12.989Z,86.60
2019-03-04T13:39:38.625Z,86.90
2019-03-04T13:41:04.317Z,87.50
2019-03-04T13:42:29.940Z,87.30
2019-03-04T13:43:55.466Z,87.20
2019-03-04T13:45:21.158Z,86.70
2019-03-04T13:46:46.803Z,86.80
2019-03-04T13:48:12.462Z,86.80
2019-03-04T13:49:38.080Z,86.30
2019-03-04T13:51:03.696Z,86.20
2019-03-04T13:52:29.202Z,85.80
2019-03-04T13:53:54.706Z,86.40
2019-03-04T13:55:20.334Z,86.80
2019-03-04T13:56:45.881Z,86.70
2019-03-04T13:58:11.578Z,86.70
2019-03-04T13:59:46.423Z,86.40
2019-03-04T14:01:11.892Z,86.40
2019-03-04T14:02:37.574Z,86.50
2019-03-04T14:04:03.265Z,86.50
2019-03-04T14:05:29.188Z,86.50
2019-03-04T14:06:54.789Z,86.40
2019-03-04T14:08:20.346Z,86.70
2019-03-04T14:09:45.825Z,87.00
2019-03-04T14:11:11.635Z,87.00
2019-03-04T14:12:37.160Z,86.90
2019-03-04T14:14:02.685Z,87.00
2019-03-04T14:15:31.533Z,87.20
2019-03-04T14:17:00.449Z,87.30
2019-03-04T14:18:26.233Z,87.10
2019-03-04T14:19:51.838Z,86.80
2019-03-04T14:21:17.452Z,86.50
2019-03-04T14:22:43.085Z,86.30
2019-03-04T14:24:08.714Z,86.10
2019-03-04T14:25:34.434Z,86.30
2019-03-04T14:27:00.518Z,86.50
2019-03-04T14:28:28.177Z,86.50
2019-03-04T14:29:53.164Z,87.20
2019-03-04T14:31:18.694Z,87.50
2019-03-04T14:32:47.513Z,87.40
2019-03-04T14:34:13.013Z,87.60
2019-03-04T14:35:38.692Z,88.00
2019-03-04T14:37:04.261Z,88.10
2019-03-04T14:38:29.954Z,87.80
2019-03-04T14:39:56.849Z,87.60
2019-03-04T14:41:22.445Z,87.50
2019-03-04T14:42:48.234Z,87.70
2019-03-04T14:44:13.739Z,87.70
2019-03-04T14:45:41.252Z,87.90
2019-03-04T14:47:07.137Z,87.60
2019-03-04T14:48:32.789Z,87.20
2019-03-04T14:50:09.164Z,87.00
2019-03-04T14:51:25.694Z,87.50
2019-03-04T14:52:51.432Z,88.10
2019-03-04T14:54:17.281Z,88.40
2019-03-04T14:55:43.098Z,88.70
2019-03-04T14:57:08.978Z,88.70
2019-03-04T14:58:34.660Z,88.60
2019-03-04T15:00:00.372Z,88.50
2019-03-04T15:01:26.576Z,88.60
2019-03-04T15:02:52.254Z,89.00
2019-03-04T15:04:17.843Z,88.60
2019-03-04T15:05:44.987Z,88.70
2019-03-04T15:07:10.525Z,89.00
2019-03-04T15:08:36.164Z,89.00
2019-03-04T15:10:01.666Z,89.00
2019-03-04T15:11:27.441Z,88.50
2019-03-04T15:12:53.016Z,89.40
2019-03-04T15:14:18.521Z,89.80
2019-03-04T15:15:44.143Z,90.00
2019-03-04T15:17:09.259Z,90.20
2019-03-04T15:18:35.179Z,90.20
2019-03-04T15:20:09.356Z,90.20
2019-03-04T15:21:32.493Z,90.20
2019-03-04T15:22:58.130Z,90.30
2019-03-04T15:24:23.755Z,90.40
2019-03-04T15:25:49.526Z,90.30
2019-03-04T15:27:15.125Z,90.40
2019-03-04T15:28:40.658Z,90.30
2019-03-04T15:30:09.896Z,90.20
2019-03-04T15:31:35.554Z,90.30
2019-03-04T15:33:01.167Z,90.20
2019-03-04T15:34:26.853Z,90.10
2019-03-04T15:35:52.453Z,90.40
2019-03-04T15:37:18.095Z,90.40
2019-03-04T15:38:43.589Z,90.20
2019-03-04T15:40:09.483Z,90.00
2019-03-04T15:41:40.144Z,90.20
2019-03-04T15:43:03.237Z,90.30
2019-03-04T15:44:29.671Z,90.40
2019-03-04T15:45:57.174Z,90.30
2019-03-04T15:47:22.663Z,90.30
2019-03-04T15:48:48.302Z,90.40
2019-03-04T15:50:14.454Z,90.40
2019-03-04T15:51:40.071Z,90.30
2019-03-04T15:53:05.713Z,90.40
2019-03-04T15:54:31.378Z,90.50
2019-03-04T15:55:56.972Z,90.60
2019-03-04T15:57:22.582Z,90.60
2019-03-04T15:58:48.102Z,90.60
2019-03-04T16:00:13.996Z,90.60
2019-03-04T16:01:39.842Z,90.70
2019-03-04T16:03:05.900Z,90.70
2019-03-04T16:04:31.784Z,90.70
2019-03-04T16:05:57.410Z,90.70
2019-03-04T16:07:26.266Z,90.80
2019-03-04T16:08:51.892Z,90.90
2019-03-04T16:10:17.946Z,91.00
2019-03-04T16:11:43.662Z,91.10
2019-03-04T16:13:09.494Z,91.30
2019-03-04T16:14:35.198Z,91.20
2019-03-04T16:16:00.862Z,91.20
2019-03-04T16:17:26.450Z,91.20
2019-03-04T16:18:52.070Z,91.20
2019-03-04T16:20:18.337Z,91.30
2019-03-04T16:21:44.074Z,91.30
2019-03-04T16:23:09.920Z,91.40
2019-03-04T16:24:35.393Z,91.40
2019-03-04T16:26:05.913Z,91.50
2019-03-04T16:27:31.745Z,91.60
2019-03-04T16:28:57.262Z,91.80
2019-03-04T16:30:22.856Z,91.90
2019-03-04T16:31:48.512Z,92.00
2019-03-04T16:33:14.148Z,92.00
2019-03-04T16:34:39.810Z,92.00
2019-03-04T16:36:05.706Z,92.20
2019-03-04T16:37:31.187Z,92.30
2019-03-04T16:38:56.719Z,92.40
2019-03-04T16:40:22.424Z,92.40
2019-03-04T16:41:48.127Z,92.40
2019-03-04T16:43:13.847Z,92.40
2019-03-04T16:44:40.104Z,92.40
2019-03-04T16:46:05.988Z,92.50
2019-03-04T16:47:31.602Z,92.60
2019-03-04T16:48:57.132Z,92.60
2019-03-04T16:50:22.958Z,92.60
2019-03-04T16:51:48.771Z,92.70
2019-03-04T16:53:15.306Z,92.80
2019-03-04T16:54:40.881Z,92.80
2019-03-04T16:56:06.703Z,92.80
2019-03-04T16:57:32.342Z,92.80
2019-03-04T16:58:59.419Z,92.80
2019-03-04T17:00:25.139Z,92.80
2019-03-04T17:01:50.894Z,92.70
2019-03-04T17:03:16.696Z,92.70
2019-03-04T17:04:42.260Z,92.60
2019-03-04T17:06:07.828Z,92.70
2019-03-04T17:07:33.351Z,92.70
2019-03-04T17:08:58.970Z,92.80
2019-03-04T17:10:24.937Z,92.80
2019-03-04T17:11:50.407Z,92.80
2019-03-04T17:13:16.054Z,92.80
2019-03-04T17:14:41.550Z,92.80
2019-03-04T17:16:07.082Z,92.90
2019-03-04T17:17:32.691Z,93.00
2019-03-04T17:18:58.161Z,93.10
2019-03-04T17:20:23.853Z,93.20
2019-03-04T17:21:49.375Z,93.30
2019-03-04T17:23:14.883Z,93.30
2019-03-04T17:24:40.569Z,93.30
2019-03-04T17:26:06.230Z,93.40
2019-03-04T17:27:34.658Z,93.40
2019-03-04T17:29:00.554Z,93.50
2019-03-04T17:30:27.356Z,93.50
2019-03-04T17:31:52.970Z,93.50
2019-03-04T17:33:18.789Z,93.50
2019-03-04T17:34:44.403Z,93.60
2019-03-04T17:36:09.915Z,93.40
2019-03-04T17:37:35.492Z,93.50
2019-03-04T17:39:01.187Z,93.40
2019-03-04T17:40:26.794Z,93.50
2019-03-04T17:41:52.436Z,93.60
2019-03-04T17:43:18.037Z,93.60
2019-03-04T17:44:43.511Z,93.60
2019-03-04T17:46:09.043Z,93.60
2019-03-04T17:47:34.561Z,93.60
2019-03-04T17:49:00.069Z,93.60
2019-03-04T17:50:29.841Z,93.60
2019-03-04T17:51:55.363Z,93.60
2019-03-04T17:53:21.150Z,93.60
2019-03-04T17:54:46.761Z,93.60
2019-03-04T17:56:12.367Z,93.60
2019-03-04T17:57:38.008Z,93.60
2019-03-04T17:59:03.635Z,93.50
2019-03-04T18:00:29.602Z,93.50
2019-03-04T18:01:55.322Z,93.80
2019-03-04T18:03:20.995Z,93.40
2019-03-04T18:04:46.492Z,93.40
2019-03-04T18:06:12.119Z,93.40
2019-03-04T18:07:38.252Z,93.50
2019-03-04T18:09:03.897Z,93.50
2019-03-04T18:10:29.417Z,93.60
2019-03-04T18:11:55.125Z,93.60
2019-03-04T18:13:20.646Z,93.70
2019-03-04T18:14:46.132Z,93.70
2019-03-04T18:16:11.780Z,93.70
2019-03-04T18:17:38.494Z,93.70
2019-03-04T18:19:04.214Z,93.70
2019-03-04T18:20:34.359Z,93.70
2019-03-04T18:21:58.286Z,93.80
2019-03-04T18:23:23.989Z,93.80
2019-03-04T18:24:49.628Z,93.80
2019-03-04T18:26:21.933Z,93.80
2019-03-04T18:27:53.490Z,93.90
2019-03-04T18:29:51.312Z,93.90
2019-03-04T18:31:44.684Z,93.90
2019-03-04T18:34:01.526Z,94.00
2019-03-04T18:36:00.418Z,93.80
2019-03-04T18:37:47.690Z,93.80
2019-03-04T18:39:51.582Z,93.80
2019-03-04T18:41:36.038Z,94.00
2019-03-04T18:43:53.293Z,94.20
2019-03-04T18:45:33.094Z,94.40
2019-03-04T18:47:35.007Z,94.70
2019-03-04T18:49:03.403Z,94.80
2019-03-04T18:50:29.197Z,94.80